createdAt,value
2019-04-26T00:00:48.162Z,42.84
2019-04-26T00:03:20.269Z,43.20
2019-04-26T00:05:49.137Z,42.05
2019-04-26T00:08:17.978Z,42.10
2019-04-26T00:11:08.037Z,43.00
2019-04-26T00:13:56.414Z,43.92
2019-04-26T00:16:44.321Z,43.59
2019-04-26T00:19:13.791Z,43.10
2019-04-26T00:21:42.646Z,42.83
2019-04-26T00:24:11.761Z,44.44
2019-04-26T00:26:40.497Z,44.24
2019-04-26T00:29:09.082Z,45.19
2019-04-26T00:31:37.690Z,44.73
2019-04-26T00:34:06.534Z,45.60
2019-04-26T00:36:35.241Z,45.73
2019-04-26T00:39:04.139Z,46.14
2019-04-26T00:41:32.831Z,45.18
2019-04-26T00:44:01.508Z,44.48
2019-04-26T00:46:30.992Z,43.69
2019-04-26T00:49:01.180Z,44.17
2019-04-26T00:51:30.185Z,43.40
2019-04-26T00:53:58.977Z,45.02
2019-04-26T00:56:27.657Z,44.39
2019-04-26T00:58:56.557Z,45.75
2019-04-26T01:01:27.231Z,44.87
2019-04-26T01:03:55.902Z,45.32
2019-04-26T01:06:26.594Z,45.25
2019-04-26T01:08:55.246Z,44.26
2019-04-26T01:11:24.128Z,46.48
2019-04-26T01:13:52.747Z,47.58
2019-04-26T01:16:22.176Z,47.39
2019-04-26T01:18:51.039Z,46.67
2019-04-26T01:21:20.633Z,46.55
2019-04-26T01:23:51.270Z,47.30
2019-04-26T01:26:27.421Z,48.42
2019-04-26T01:29:06.119Z,49.42
2019-04-26T01:31:40.158Z,49.65
2019-04-26T01:34:08.979Z,49.79
2019-04-26T01:36:37.760Z,48.90
2019-04-26T01:39:17.910Z,47.39
2019-04-26T01:41:52.570Z,47.21
2019-04-26T01:44:29.592Z,46.36
2019-04-26T01:46:58.303Z,45.11
2019-04-26T01:49:26.985Z,45.39
2019-04-26T01:52:01.026Z,46.98
2019-04-26T01:54:35.093Z,45.84
2019-04-26T01:59:31.697Z,47.54
2019-04-26T02:02:12.051Z,47.73
2019-04-26T02:04:43.186Z,45.78
2019-04-26T02:07:12.009Z,46.97
2019-04-26T02:09:41.176Z,48.91
2019-04-26T02:12:10.036Z,49.05
2019-04-26T02:14:38.749Z,49.05
2019-04-26T02:17:07.794Z,47.81
2019-04-26T02:19:36.488Z,47.81
2019-04-26T02:22:25.963Z,49.74
2019-04-26T02:24:55.328Z,47.04
2019-04-26T02:27:26.332Z,46.96
2019-04-26T02:29:55.504Z,47.81
2019-04-26T02:32:26.670Z,47.58
2019-04-26T02:34:56.496Z,47.06
2019-04-26T02:37:27.036Z,47.50
2019-04-26T02:39:56.331Z,49.83
2019-04-26T02:42:30.784Z,49.88
2019-04-26T02:45:30.015Z,51.83
2019-04-26T02:48:17.206Z,50.50
2019-04-26T02:50:52.198Z,48.81
2019-04-26T02:53:37.382Z,49.03
2019-04-26T02:56:31.279Z,47.96
2019-04-26T02:59:28.446Z,49.69
2019-04-26T03:01:59.009Z,47.29
2019-04-26T03:04:30.469Z,46.28
2019-04-26T03:07:04.108Z,47.30
2019-04-26T03:09:35.622Z,46.67
2019-04-26T03:12:10.230Z,46.12
2019-04-26T03:15:13.185Z,46.05
2019-04-26T03:18:01.942Z,46.33
2019-04-26T03:20:38.318Z,46.02
2019-04-26T03:23:46.232Z,47.50
2019-04-26T03:26:33.674Z,45.97
2019-04-26T03:29:16.761Z,46.00
2019-04-26T03:32:22.927Z,47.09
2019-04-26T03:35:17.679Z,46.30
2019-04-26T03:38:08.681Z,47.15
2019-04-26T03:40:55.796Z,49.53
2019-04-26T03:43:43.155Z,46.59
2019-04-26T03:46:29.035Z,48.35
2019-04-26T03:49:09.540Z,46.40
2019-04-26T03:52:12.512Z,46.01
2019-04-26T03:54:42.864Z,45.82
2019-04-26T03:57:23.648Z,45.97
2019-04-26T04:00:22.773Z,46.96
2019-04-26T04:03:02.961Z,47.91
2019-04-26T04:05:45.523Z,50.00
2019-04-26T04:08:24.867Z,48.92
2019-04-26T04:10:57.372Z,49.33
2019-04-26T04:13:44.488Z,49.02
2019-04-26T04:16:24.435Z,47.30
2019-04-26T04:18:59.305Z,47.01
2019-04-26T04:21:45.088Z,48.46
2019-04-26T04:24:19.609Z,48.79
2019-04-26T04:26:57.561Z,46.87
2019-04-26T04:30:03.242Z,46.22
2019-04-26T04:33:05.524Z,45.83
2019-04-26T04:35:38.071Z,48.20
2019-04-26T04:38:16.148Z,47.45
2019-04-26T04:41:12.937Z,48.01
2019-04-26T04:43:53.186Z,47.91
2019-04-26T04:46:57.576Z,48.28
2019-04-26T04:50:16.292Z,45.96
2019-04-26T04:53:30.649Z,46.71
2019-04-26T04:56:23.295Z,46.14
2019-04-26T04:58:54.112Z,46.40
2019-04-26T05:01:50.369Z,45.73
2019-04-26T05:04:31.561Z,46.35
2019-04-26T05:07:17.006Z,45.92
2019-04-26T05:10:08.799Z,47.92
2019-04-26T05:13:05.244Z,47.85
2019-04-26T05:15:50.713Z,47.67
2019-04-26T05:18:37.052Z,48.53
2019-04-26T05:21:27.153Z,47.45
2019-04-26T05:24:09.881Z,47.58
2019-04-26T05:27:41.125Z,46.50
2019-04-26T05:30:40.927Z,46.88
2019-04-26T05:33:25.293Z,47.46
2019-04-26T05:36:15.010Z,48.38
2019-04-26T05:39:40.090Z,49.86
2019-04-26T05:43:00.246Z,48.69
2019-04-26T05:46:02.818Z,48.68
2019-04-26T05:49:06.162Z,47.00
2019-04-26T05:52:19.639Z,46.70
2019-04-26T05:55:11.391Z,47.78
2019-04-26T05:58:09.528Z,47.92
2019-04-26T06:01:03.377Z,48.28
2019-04-26T06:04:14.841Z,47.02
2019-04-26T06:06:53.125Z,46.75
2019-04-26T06:09:54.451Z,46.87
2019-04-26T06:12:56.628Z,47.83
2019-04-26T06:15:39.575Z,46.42
2019-04-26T06:18:58.092Z,47.85
2019-04-26T06:22:17.056Z,49.89
2019-04-26T06:25:04.325Z,47.10
2019-04-26T06:27:51.934Z,46.96
2019-04-26T06:30:45.298Z,46.09
2019-04-26T06:33:35.238Z,46.30
2019-04-26T06:36:06.866Z,47.16
2019-04-26T06:39:19.576Z,47.03
2019-04-26T06:42:30.017Z,46.85
2019-04-26T06:45:36.335Z,45.99
2019-04-26T06:48:19.020Z,47.52
2019-04-26T06:50:55.561Z,46.97
2019-04-26T06:53:46.168Z,45.82
2019-04-26T06:56:42.321Z,47.69
2019-04-26T06:59:41.086Z,46.53
2019-04-26T07:02:14.903Z,50.63
2019-04-26T07:05:19.320Z,48.79
2019-04-26T07:08:21.268Z,49.01
2019-04-26T07:11:11.742Z,51.50
2019-04-26T07:13:59.289Z,52.81
2019-04-26T07:16:49.951Z,51.00
2019-04-26T07:19:48.096Z,51.27
2019-04-26T07:23:00.905Z,52.53
2019-04-26T07:26:07.982Z,52.22
2019-04-26T07:28:48.374Z,56.36
2019-04-26T07:31:39.902Z,53.36
2019-04-26T07:34:49.440Z,53.01
2019-04-26T07:37:49.952Z,55.31
2019-04-26T07:41:01.462Z,52.60
2019-04-26T07:44:07.724Z,54.41
2019-04-26T07:46:58.462Z,56.47
2019-04-26T07:50:05.034Z,55.92
2019-04-26T07:53:09.302Z,54.28
2019-04-26T07:56:09.338Z,54.92
2019-04-26T07:59:07.239Z,54.05
2019-04-26T08:02:11.121Z,53.31
2019-04-26T08:04:44.320Z,51.90
2019-04-26T08:07:19.453Z,52.97
2019-04-26T08:10:06.005Z,54.47
2019-04-26T08:12:36.101Z,55.02
2019-04-26T08:15:30.004Z,51.65
2019-04-26T08:18:06.622Z,55.26
2019-04-26T08:20:48.234Z,54.81
2019-04-26T08:23:38.541Z,54.81
2019-04-26T08:25:55.764Z,53.09
2019-04-26T08:28:26.153Z,52.45
2019-04-26T08:30:55.796Z,54.81
2019-04-26T08:33:29.985Z,55.17
2019-04-26T08:36:00.511Z,54.49
2019-04-26T08:38:29.391Z,57.37
2019-04-26T08:41:00.248Z,54.90
2019-04-26T08:43:42.432Z,53.07
2019-04-26T08:46:32.213Z,55.03
2019-04-26T08:49:18.908Z,53.37
2019-04-26T08:51:52.171Z,53.50
2019-04-26T08:54:24.090Z,52.49
2019-04-26T08:57:00.753Z,51.05
2019-04-26T08:59:32.160Z,53.67
2019-04-26T09:02:21.873Z,51.94
2019-04-26T09:05:08.275Z,51.48
2019-04-26T09:07:38.620Z,50.91
2019-04-26T09:10:11.191Z,50.18
2019-04-26T09:12:41.847Z,50.43
2019-04-26T09:15:13.231Z,51.25
2019-04-26T09:17:41.876Z,51.87
2019-04-26T09:20:10.791Z,50.79
2019-04-26T09:23:03.952Z,51.78
2019-04-26T09:25:39.483Z,50.42
2019-04-26T09:28:25.208Z,50.50
2019-04-26T09:31:05.713Z,53.05
2019-04-26T09:33:49.535Z,52.38
2019-04-26T09:36:18.322Z,50.18
2019-04-26T09:38:47.174Z,51.56
2019-04-26T09:41:15.840Z,52.06
2019-04-26T09:43:49.032Z,50.48
2019-04-26T09:46:33.403Z,49.01
2019-04-26T09:49:16.340Z,51.02
2019-04-26T09:51:44.960Z,50.74
2019-04-26T09:54:15.410Z,51.13
2019-04-26T09:56:43.994Z,52.24
2019-04-26T09:59:12.786Z,51.07
2019-04-26T10:01:41.404Z,52.48
2019-04-26T10:04:10.020Z,52.45
2019-04-26T10:06:38.639Z,53.09
2019-04-26T10:09:13.364Z,54.07
2019-04-26T10:11:47.262Z,54.52
2019-04-26T10:14:19.648Z,53.56
2019-04-26T10:17:20.530Z,52.75
2019-04-26T10:19:51.232Z,51.44
2019-04-26T10:22:20.568Z,51.09
2019-04-26T10:24:49.157Z,50.93
2019-04-26T10:27:18.024Z,50.60
2019-04-26T10:29:46.611Z,52.42
2019-04-26T10:32:16.024Z,51.25
2019-04-26T10:34:47.407Z,51.08
2019-04-26T10:37:15.037Z,50.54
2019-04-26T10:39:44.120Z,51.74
2019-04-26T10:42:12.823Z,51.51
2019-04-26T10:44:41.667Z,49.88
2019-04-26T10:47:10.350Z,51.43
2019-04-26T10:49:40.079Z,50.48
2019-04-26T10:52:11.951Z,50.65
2019-04-26T10:54:45.922Z,51.70
2019-04-26T10:57:16.944Z,50.38
2019-04-26T10:59:57.177Z,50.29
2019-04-26T11:02:26.131Z,51.54
2019-04-26T11:04:55.010Z,50.59
2019-04-26T11:07:23.754Z,53.77
2019-04-26T11:09:52.661Z,52.08
2019-04-26T11:12:21.346Z,52.23
2019-04-26T11:14:53.243Z,50.48
2019-04-26T11:17:20.438Z,51.93
2019-04-26T11:19:49.247Z,50.07
2019-04-26T11:22:28.527Z,51.13
2019-04-26T11:24:50.102Z,50.83
2019-04-26T11:27:19.143Z,52.41
2019-04-26T11:29:53.528Z,51.04
2019-04-26T11:32:18.113Z,49.94
2019-04-26T11:34:46.945Z,50.15
2019-04-26T11:37:17.938Z,48.44
2019-04-26T11:39:46.019Z,49.92
2019-04-26T11:42:14.589Z,50.12
2019-04-26T11:44:44.723Z,49.98
2019-04-26T11:47:14.531Z,47.78
2019-04-26T11:49:43.235Z,49.35
2019-04-26T11:52:12.183Z,47.83
2019-04-26T11:54:40.782Z,48.63
2019-04-26T11:57:12.092Z,51.87
2019-04-26T11:59:40.199Z,52.22
2019-04-26T12:02:12.182Z,50.98
2019-04-26T12:04:53.604Z,49.17
2019-04-26T12:07:28.890Z,48.42
2019-04-26T12:10:00.282Z,47.83
2019-04-26T12:12:28.878Z,47.56
2019-04-26T12:14:57.583Z,48.39
2019-04-26T12:17:27.083Z,47.89
2019-04-26T12:19:55.860Z,48.43
2019-04-26T12:22:24.480Z,47.84
2019-04-26T12:24:53.210Z,49.40
2019-04-26T12:27:21.962Z,49.86
2019-04-26T12:29:50.964Z,50.90
2019-04-26T12:32:19.756Z,52.47
2019-04-26T12:34:48.495Z,54.00
2019-04-26T12:37:19.868Z,52.54
2019-04-26T12:39:47.457Z,52.94
2019-04-26T12:42:16.533Z,50.85
2019-04-26T12:44:59.000Z,48.63
2019-04-26T12:47:38.639Z,49.78
2019-04-26T12:50:07.621Z,49.84
2019-04-26T12:52:37.517Z,49.76
2019-04-26T12:55:06.442Z,46.79
2019-04-26T12:57:36.468Z,48.19
2019-04-26T13:00:06.318Z,49.52
2019-04-26T13:02:34.979Z,47.84
2019-04-26T13:05:03.938Z,49.67
2019-04-26T13:07:32.837Z,49.28
2019-04-26T13:10:18.866Z,50.00
2019-04-26T13:13:12.546Z,48.39
2019-04-26T13:16:00.089Z,50.62
2019-04-26T13:18:28.765Z,50.61
2019-04-26T13:20:58.551Z,48.15
2019-04-26T13:23:29.917Z,49.53
2019-04-26T13:25:59.624Z,51.78
2019-04-26T13:28:28.718Z,50.35
2019-04-26T13:30:57.617Z,50.05
2019-04-26T13:33:27.374Z,49.33
2019-04-26T13:36:04.116Z,49.89
2019-04-26T13:38:27.357Z,50.42
2019-04-26T13:40:59.559Z,49.31
2019-04-26T13:43:28.470Z,49.32
2019-04-26T13:46:28.094Z,50.16
2019-04-26T13:49:04.849Z,48.03
2019-04-26T13:51:34.453Z,47.47
2019-04-26T13:54:03.335Z,46.53
2019-04-26T13:56:35.514Z,47.93
2019-04-26T13:59:02.303Z,46.19
2019-04-26T14:01:30.935Z,47.98
2019-04-26T14:04:02.414Z,47.72
2019-04-26T14:06:30.134Z,49.75
2019-04-26T14:09:02.721Z,48.87
2019-04-26T14:11:29.567Z,52.75
2019-04-26T14:14:00.179Z,50.15
2019-04-26T14:16:28.643Z,50.03
2019-04-26T14:18:57.257Z,52.03
2019-04-26T14:21:29.203Z,51.72
2019-04-26T14:24:24.061Z,51.08
2019-04-26T14:26:56.794Z,50.13
2019-04-26T14:29:28.379Z,50.69
2019-04-26T14:31:55.766Z,49.54
2019-04-26T14:34:24.391Z,50.73
2019-04-26T14:37:05.570Z,51.69
2019-04-26T14:39:33.866Z,52.80
2019-04-26T14:41:57.012Z,50.76
2019-04-26T14:44:27.267Z,51.28
2019-04-26T14:46:56.827Z,51.01
2019-04-26T14:49:38.273Z,51.10
2019-04-26T14:51:56.401Z,50.45
2019-04-26T14:54:25.017Z,49.72
2019-04-26T14:56:53.939Z,50.41
2019-04-26T14:59:50.849Z,49.28
2019-04-26T15:02:47.221Z,50.06
2019-04-26T15:05:25.425Z,49.00
2019-04-26T15:07:54.025Z,51.16
2019-04-26T15:10:24.337Z,50.21
2019-04-26T15:13:05.729Z,50.41
2019-04-26T15:15:26.867Z,51.03
2019-04-26T15:17:59.519Z,49.82
2019-04-26T15:20:25.492Z,49.58
2019-04-26T15:22:54.112Z,48.39
2019-04-26T15:25:22.969Z,49.53
2019-04-26T15:27:52.469Z,47.54
2019-04-26T15:30:22.026Z,48.52
2019-04-26T15:32:52.942Z,46.38
2019-04-26T15:35:23.100Z,44.88
2019-04-26T15:37:53.416Z,46.00
2019-04-26T15:40:46.897Z,46.28
2019-04-26T15:43:28.625Z,45.01
2019-04-26T15:46:08.205Z,43.90
2019-04-26T15:48:58.777Z,47.32
2019-04-26T15:51:29.300Z,47.48
2019-04-26T15:53:57.978Z,47.75
2019-04-26T15:56:26.695Z,48.16
2019-04-26T15:58:55.379Z,45.95
2019-04-26T16:01:24.217Z,47.48
2019-04-26T16:03:53.202Z,45.67
2019-04-26T16:06:23.640Z,45.79
2019-04-26T16:08:52.383Z,48.16
2019-04-26T16:11:21.255Z,45.83
2019-04-26T16:13:52.145Z,46.30
2019-04-26T16:16:20.517Z,44.77
2019-04-26T16:18:55.936Z,45.58
2019-04-26T16:21:22.067Z,46.37
2019-04-26T16:23:54.131Z,46.01
2019-04-26T16:26:22.778Z,46.43
2019-04-26T16:29:18.616Z,46.33
2019-04-26T16:32:04.510Z,47.17
2019-04-26T16:34:33.166Z,48.35
2019-04-26T16:37:03.117Z,46.75
2019-04-26T16:39:38.265Z,47.25
2019-04-26T16:42:05.163Z,48.09
2019-04-26T16:44:33.531Z,45.76
2019-04-26T16:47:05.700Z,46.32
2019-04-26T16:49:35.117Z,46.21
2019-04-26T16:52:06.839Z,48.47
2019-04-26T16:54:34.266Z,46.59
2019-04-26T16:57:06.290Z,47.34
2019-04-26T16:59:33.658Z,47.81
2019-04-26T17:02:02.788Z,48.17
2019-04-26T17:04:35.091Z,47.36
2019-04-26T17:07:04.798Z,46.77
2019-04-26T17:09:54.343Z,47.02
2019-04-26T17:12:03.017Z,47.14
2019-04-26T17:14:34.106Z,47.65
2019-04-26T17:17:03.210Z,47.66
2019-04-26T17:19:34.238Z,48.20
2019-04-26T17:22:15.327Z,47.51
2019-04-26T17:24:56.672Z,46.75
2019-04-26T17:27:25.535Z,46.54
2019-04-26T17:29:54.199Z,47.39
2019-04-26T17:32:23.325Z,45.99
2019-04-26T17:34:54.313Z,46.41
2019-04-26T17:37:26.582Z,46.73
2019-04-26T17:39:55.383Z,45.96
2019-04-26T17:42:25.156Z,46.86
2019-04-26T17:44:53.239Z,47.91
2019-04-26T17:47:21.823Z,47.15
2019-04-26T17:49:52.385Z,46.11
2019-04-26T17:52:21.144Z,45.79
2019-04-26T17:54:51.956Z,47.14
2019-04-26T17:57:32.122Z,47.49
2019-04-26T17:59:51.606Z,46.79
2019-04-26T18:02:38.677Z,48.39
2019-04-26T18:04:58.875Z,47.43
2019-04-26T18:07:39.752Z,46.97
2019-04-26T18:09:52.565Z,45.83
2019-04-26T18:12:21.166Z,47.80
2019-04-26T18:14:50.273Z,46.87
2019-04-26T18:17:28.840Z,46.14
2019-04-26T18:20:08.954Z,47.40
2019-04-26T18:22:42.812Z,47.11
2019-04-26T18:25:13.007Z,49.29
2019-04-26T18:27:43.501Z,48.50
2019-04-26T18:30:14.163Z,48.42
2019-04-26T18:32:47.556Z,49.02
2019-04-26T18:35:16.678Z,49.57
2019-04-26T18:37:43.862Z,49.42
2019-04-26T18:40:12.537Z,49.68
2019-04-26T18:42:41.932Z,50.75
2019-04-26T18:45:10.932Z,50.69
2019-04-26T18:47:41.559Z,53.58
2019-04-26T18:50:10.497Z,52.33
2019-04-26T18:52:45.713Z,52.93
2019-04-26T18:55:21.589Z,51.51
2019-04-26T18:57:55.222Z,51.97
2019-04-26T19:00:29.041Z,50.70
2019-04-26T19:03:00.042Z,50.42
2019-04-26T19:05:30.220Z,50.45
2019-04-26T19:07:58.911Z,50.04
2019-04-26T19:10:29.366Z,50.54
2019-04-26T19:13:01.336Z,50.90
2019-04-26T19:15:44.112Z,51.05
2019-04-26T19:18:37.967Z,52.69
2019-04-26T19:21:21.916Z,51.41
2019-04-26T19:23:51.906Z,51.08
2019-04-26T19:26:32.315Z,50.44
2019-04-26T19:28:52.920Z,51.56
2019-04-26T19:31:25.446Z,51.81
2019-04-26T19:33:55.860Z,52.17
2019-04-26T19:36:26.181Z,52.38
2019-04-26T19:38:53.244Z,50.71
2019-04-26T19:41:22.758Z,51.53
2019-04-26T19:43:52.128Z,50.83
2019-04-26T19:46:31.840Z,50.43
2019-04-26T19:49:25.918Z,51.42
2019-04-26T19:52:04.140Z,51.48
2019-04-26T19:54:54.841Z,51.09
2019-04-26T19:57:34.054Z,51.81
2019-04-26T19:59:59.199Z,51.69
2019-04-26T20:02:35.911Z,51.57
2019-04-26T20:04:58.300Z,51.42
2019-04-26T20:07:28.221Z,51.21
2019-04-26T20:10:02.579Z,51.16
2019-04-26T20:12:29.453Z,49.58
2019-04-26T20:14:58.505Z,49.79
2019-04-26T20:17:27.242Z,49.25
2019-04-26T20:19:55.869Z,50.40
2019-04-26T20:22:28.263Z,50.83
2019-04-26T20:24:57.508Z,50.26
2019-04-26T20:27:27.873Z,50.53
2019-04-26T20:29:56.639Z,50.04
2019-04-26T20:32:32.408Z,51.17
2019-04-26T20:35:07.942Z,52.65
2019-04-26T20:37:36.677Z,51.95
2019-04-26T20:40:18.799Z,49.99
2019-04-26T20:42:36.081Z,50.14
2019-04-26T20:45:08.419Z,50.13
2019-04-26T20:47:35.786Z,51.53
2019-04-26T20:50:04.954Z,51.15
2019-04-26T20:52:33.579Z,52.38
2019-04-26T20:55:02.219Z,51.52
2019-04-26T20:57:34.396Z,50.32
2019-04-26T21:00:05.116Z,49.53
2019-04-26T21:02:32.490Z,50.28
2019-04-26T21:05:02.011Z,49.02
2019-04-26T21:07:32.554Z,50.92
2019-04-26T21:10:01.473Z,51.38
2019-04-26T21:12:31.425Z,50.65
2019-04-26T21:15:00.343Z,48.39
2019-04-26T21:17:29.016Z,50.04
2019-04-26T21:19:58.648Z,49.92
2019-04-26T21:22:28.756Z,49.50
2019-04-26T21:25:04.760Z,49.91
2019-04-26T21:27:51.715Z,50.61
2019-04-26T21:30:33.633Z,49.60
2019-04-26T21:33:12.915Z,47.85
2019-04-26T21:36:18.804Z,49.21
2019-04-26T21:39:04.161Z,49.44
2019-04-26T21:41:33.854Z,47.99
2019-04-26T21:44:03.133Z,48.16
2019-04-26T21:46:31.754Z,48.40
2019-04-26T21:49:00.353Z,50.13
2019-04-26T21:51:28.968Z,50.35
2019-04-26T21:53:57.563Z,51.22
2019-04-26T21:56:26.247Z,50.05
2019-04-26T21:58:55.098Z,48.82
2019-04-26T22:01:25.233Z,48.30
2019-04-26T22:03:58.327Z,47.40
2019-04-26T22:06:28.686Z,48.26
2019-04-26T22:09:02.739Z,47.23
2019-04-26T22:11:30.816Z,48.21
2019-04-26T22:14:04.517Z,46.88
2019-04-26T22:16:38.810Z,47.31
2019-04-26T22:19:28.083Z,48.33
2019-04-26T22:22:10.947Z,48.16
2019-04-26T22:24:39.590Z,48.50
2019-04-26T22:27:08.354Z,47.25
2019-04-26T22:29:36.970Z,47.80
2019-04-26T22:32:05.722Z,46.83
2019-04-26T22:34:37.388Z,47.56
2019-04-26T22:37:11.584Z,47.57
2019-04-26T22:39:39.834Z,49.13
2019-04-26T22:42:05.343Z,49.81
2019-04-26T22:44:43.492Z,49.74
2019-04-26T22:47:21.607Z,49.86
2019-04-26T22:49:50.674Z,49.50
2019-04-26T22:52:19.578Z,48.92
2019-04-26T22:54:48.260Z,47.79
2019-04-26T22:57:16.878Z,47.86
2019-04-26T22:59:50.124Z,48.69
2019-04-26T23:02:18.514Z,48.92
2019-04-26T23:04:47.286Z,48.53
2019-04-26T23:07:18.405Z,48.78
2019-04-26T23:09:51.986Z,49.31
2019-04-26T23:12:39.069Z,49.13
2019-04-26T23:15:31.042Z,48.27
2019-04-26T23:18:19.999Z,52.18
2019-04-26T23:20:53.594Z,52.18
2019-04-26T23:23:23.645Z,51.46
2019-04-26T23:25:52.356Z,51.46
2019-04-26T23:28:21.252Z,49.99
2019-04-26T23:30:49.944Z,49.31
2019-04-26T23:33:18.534Z,48.51
2019-04-26T23:35:47.790Z,49.98
2019-04-26T23:38:16.687Z,49.24
2019-04-26T23:40:45.551Z,48.45
2019-04-26T23:43:14.142Z,48.99
2019-04-26T23:45:48.194Z,48.99
2019-04-26T23:48:13.443Z,47.48
2019-04-26T23:50:42.988Z,47.48
2019-04-26T23:53:11.869Z,47.21
2019-04-26T23:55:42.532Z,47.87
2019-04-26T23:58:11.830Z,47.86
